Time;durP1;ratioP1;P1;durP2;ratioP2;P2;SDS_P1;SDS_P2;PMS_P1;PMS_P2;Temp;Humidity;BMP_temperature;BMP_pressure;BME280_temperature;BME280_humidity;BME280_pressure;Samples;Min_cycle;Max_cycle;Signal;HPM_P1;HPM_P2
2023/05/30 00:01:06;;;;;;;;;;;12.60;99.90;;;;;;5026818;28;19951;-73
2023/05/30 00:03:33;;;;;;;;;;;12.60;99.90;;;;;;5040206;28;20272;-74
2023/05/30 00:05:58;;;;;;;;;;;12.60;99.90;;;;;;5023227;28;20414;-73
2023/05/30 00:08:26;;;;;;;;;;;12.60;99.90;;;;;;5032537;28;19964;-74
2023/05/30 00:10:52;;;;;;;;;;;12.60;99.90;;;;;;5025990;28;19929;-74
2023/05/30 00:13:19;;;;;;;;;;;12.60;99.90;;;;;;5026689;28;20268;-74
2023/05/30 00:15:44;;;;;;;;;;;12.60;99.90;;;;;;5024048;28;20417;-74
2023/05/30 00:18:11;;;;;;;;;;;12.60;99.90;;;;;;5015212;28;19929;-74
2023/05/30 00:20:36;;;;;;;;;;;12.60;99.90;;;;;;5017000;28;19932;-74
2023/05/30 00:23:02;;;;;;;;;;;12.60;99.90;;;;;;5024113;28;20303;-73
2023/05/30 00:25:27;;;;;;;;;;;12.60;99.90;;;;;;5016209;28;19925;-74
2023/05/30 00:27:53;;;;;;;;;;;12.50;99.90;;;;;;5013650;28;19987;-73
2023/05/30 00:30:18;;;;;;;;;;;12.50;99.90;;;;;;5015770;28;19925;-74
2023/05/30 00:32:44;;;;;;;;;;;12.50;99.90;;;;;;4989162;28;19925;-73
2023/05/30 00:35:10;;;;;;;;;;;12.60;99.90;;;;;;5030846;28;19925;-73
2023/05/30 00:37:35;;;;;;;;;;;12.50;99.90;;;;;;5008982;28;19933;-74
2023/05/30 00:40:01;;;;;;;;;;;12.50;99.90;;;;;;5015771;28;19928;-73
2023/05/30 00:42:27;;;;;;;;;;;12.50;99.90;;;;;;5001006;28;19925;-73
2023/05/30 00:44:53;;;;;;;;;;;12.60;99.90;;;;;;5010898;28;19924;-74
2023/05/30 00:47:18;;;;;;;;;;;12.50;99.90;;;;;;5006550;28;19925;-73
2023/05/30 00:49:44;;;;;;;;;;;12.50;99.90;;;;;;5013488;28;19948;-73
2023/05/30 00:52:10;;;;;;;;;;;12.50;99.90;;;;;;5013260;28;19929;-74
2023/05/30 00:54:37;;;;;;;;;;;12.50;99.90;;;;;;5013336;28;20318;-74
2023/05/30 00:57:03;;;;;;;;;;;12.50;99.90;;;;;;5013107;28;19925;-73
2023/05/30 00:59:29;;;;;;;;;;;12.50;99.90;;;;;;5031409;28;20437;-73
2023/05/30 01:01:55;;;;;;;;;;;12.40;99.90;;;;;;5031908;28;19925;-74
2023/05/30 01:04:22;;;;;;;;;;;12.50;99.90;;;;;;5032253;28;19933;-74
2023/05/30 01:06:48;;;;;;;;;;;12.50;99.90;;;;;;5031477;28;19926;-73
2023/05/30 01:09:14;;;;;;;;;;;12.40;99.90;;;;;;5015497;28;20384;-73
2023/05/30 01:11:55;;;;;;;;;;;12.40;99.90;;;;;;5006495;28;19925;-73
2023/05/30 01:14:27;;;;;;;;;;;12.40;99.90;;;;;;5005324;28;20000;-74
2023/05/30 01:17:06;;;;;;;;;;;12.40;99.90;;;;;;5028998;28;19972;-73
2023/05/30 01:19:32;;;;;;;;;;;12.40;99.90;;;;;;5012433;28;20280;-73
2023/05/30 01:22:21;;;;;;;;;;;12.30;99.90;;;;;;5013968;28;19931;-73
2023/05/30 01:24:55;;;;;;;;;;;12.30;99.90;;;;;;5012443;28;20019;-74
2023/05/30 01:27:26;;;;;;;;;;;12.40;99.90;;;;;;5042381;28;19968;-73
2023/05/30 01:29:53;;;;;;;;;;;12.30;99.90;;;;;;5009539;28;19932;-73
2023/05/30 01:32:18;;;;;;;;;;;12.30;99.90;;;;;;5013205;28;20016;-73
2023/05/30 01:34:44;;;;;;;;;;;12.30;99.90;;;;;;5000224;28;20012;-73
2023/05/30 01:37:09;;;;;;;;;;;12.20;99.90;;;;;;5011924;28;19976;-73
2023/05/30 01:39:35;;;;;;;;;;;12.20;99.90;;;;;;5012231;28;19928;-73
2023/05/30 01:42:08;;;;;;;;;;;12.30;99.90;;;;;;5030594;28;19925;-74
2023/05/30 01:44:44;;;;;;;;;;;12.30;99.90;;;;;;5029530;28;19931;-73
2023/05/30 01:47:17;;;;;;;;;;;12.30;99.90;;;;;;5044834;28;19925;-73
2023/05/30 01:49:50;;;;;;;;;;;12.30;99.90;;;;;;5012355;28;19925;-73
2023/05/30 01:52:20;;;;;;;;;;;12.30;99.90;;;;;;5012383;28;19936;-74
2023/05/30 01:54:50;;;;;;;;;;;12.30;99.90;;;;;;5029981;28;19936;-74
2023/05/30 01:57:16;;;;;;;;;;;12.30;99.90;;;;;;5012239;28;20016;-73
2023/05/30 01:59:43;;;;;;;;;;;12.30;99.90;;;;;;5011692;28;19925;-74
2023/05/30 02:02:09;;;;;;;;;;;12.30;99.90;;;;;;5028953;28;19925;-74
2023/05/30 02:04:35;;;;;;;;;;;12.30;99.90;;;;;;5012107;28;20022;-74
2023/05/30 02:07:02;;;;;;;;;;;12.30;99.90;;;;;;5012376;28;19932;-74
2023/05/30 02:09:27;;;;;;;;;;;12.30;99.90;;;;;;5012539;28;20342;-73
2023/05/30 02:11:53;;;;;;;;;;;12.30;99.90;;;;;;5012805;28;19978;-74
2023/05/30 02:14:19;;;;;;;;;;;12.30;99.90;;;;;;5013189;28;19925;-74
2023/05/30 02:16:45;;;;;;;;;;;12.20;99.90;;;;;;5012498;28;20659;-74
2023/05/30 02:19:12;;;;;;;;;;;12.20;99.90;;;;;;5012396;28;19933;-74
2023/05/30 02:21:38;;;;;;;;;;;12.20;99.90;;;;;;5011558;28;19929;-74
2023/05/30 02:24:03;;;;;;;;;;;12.20;99.90;;;;;;5028806;28;19925;-73
2023/05/30 02:26:29;;;;;;;;;;;12.20;99.90;;;;;;5011875;28;19932;-73
2023/05/30 02:28:55;;;;;;;;;;;12.10;99.90;;;;;;5012382;28;20342;-73
2023/05/30 02:31:20;;;;;;;;;;;12.10;99.90;;;;;;5012251;28;20604;-74
2023/05/30 02:33:46;;;;;;;;;;;12.10;99.90;;;;;;5028846;28;20290;-73
2023/05/30 02:36:12;;;;;;;;;;;12.10;99.90;;;;;;5031046;28;19939;-73
2023/05/30 02:38:37;;;;;;;;;;;12.20;99.90;;;;;;5015503;28;19932;-74
2023/05/30 02:41:03;;;;;;;;;;;12.20;99.90;;;;;;5032312;28;20307;-73
2023/05/30 02:43:28;;;;;;;;;;;12.20;99.90;;;;;;5033589;28;19925;-74
2023/05/30 02:45:54;;;;;;;;;;;12.20;99.90;;;;;;5033669;28;19968;-73
2023/05/30 02:48:20;;;;;;;;;;;12.20;99.90;;;;;;5033684;28;19932;-74
2023/05/30 02:50:49;;;;;;;;;;;12.20;99.90;;;;;;5016825;28;19925;-74
2023/05/30 02:53:14;;;;;;;;;;;12.20;99.90;;;;;;4998415;28;19929;-74
2023/05/30 02:55:42;;;;;;;;;;;12.30;99.90;;;;;;5034240;28;19925;-74
2023/05/30 02:58:08;;;;;;;;;;;12.30;99.90;;;;;;5033975;28;19926;-73
2023/05/30 03:00:34;;;;;;;;;;;12.30;99.90;;;;;;5025881;28;19983;-74
2023/05/30 03:03:00;;;;;;;;;;;12.40;99.90;;;;;;5030889;28;19933;-74
2023/05/30 03:05:25;;;;;;;;;;;12.30;99.90;;;;;;5035069;28;19940;-73
2023/05/30 03:07:51;;;;;;;;;;;12.40;99.90;;;;;;5026054;28;19936;-73
2023/05/30 03:10:17;;;;;;;;;;;12.40;99.90;;;;;;5032875;28;20023;-73
2023/05/30 03:12:43;;;;;;;;;;;12.40;99.90;;;;;;5015240;28;20017;-73
2023/05/30 03:15:09;;;;;;;;;;;12.40;99.90;;;;;;5015624;28;19929;-73
2023/05/30 03:17:35;;;;;;;;;;;12.40;99.90;;;;;;5032965;28;19975;-73
2023/05/30 03:20:00;;;;;;;;;;;12.40;99.90;;;;;;5014666;28;19965;-74
2023/05/30 03:22:26;;;;;;;;;;;12.40;99.90;;;;;;5015462;28;19968;-74
2023/05/30 03:24:51;;;;;;;;;;;12.40;99.90;;;;;;5012966;28;19928;-74
2023/05/30 03:27:17;;;;;;;;;;;12.40;99.90;;;;;;5015190;28;19947;-74
2023/05/30 03:29:42;;;;;;;;;;;12.40;99.90;;;;;;5014162;28;19932;-74
2023/05/30 03:32:08;;;;;;;;;;;12.40;99.90;;;;;;5014253;28;19925;-73
2023/05/30 03:34:35;;;;;;;;;;;12.40;99.90;;;;;;4996320;28;19932;-72
2023/05/30 03:37:00;;;;;;;;;;;12.40;99.90;;;;;;5010742;28;19925;-72
2023/05/30 03:39:26;;;;;;;;;;;12.50;99.90;;;;;;5025928;28;20292;-72
2023/05/30 03:41:51;;;;;;;;;;;12.40;99.90;;;;;;4990149;28;20388;-72
2023/05/30 03:44:17;;;;;;;;;;;12.50;99.90;;;;;;5012815;28;19932;-72
2023/05/30 03:46:42;;;;;;;;;;;12.50;99.90;;;;;;5013958;28;19964;-72
2023/05/30 03:49:08;;;;;;;;;;;12.40;99.90;;;;;;5014040;28;19925;-72
2023/05/30 03:51:35;;;;;;;;;;;12.50;99.90;;;;;;5030319;28;19929;-73
2023/05/30 03:54:01;;;;;;;;;;;12.40;99.90;;;;;;5022715;28;19925;-72
2023/05/30 03:56:26;;;;;;;;;;;12.50;99.90;;;;;;5032063;28;19925;-72
2023/05/30 03:58:52;;;;;;;;;;;12.50;99.90;;;;;;5021363;28;19988;-72
2023/05/30 04:01:18;;;;;;;;;;;12.50;99.90;;;;;;5005424;28;20027;-72
2023/05/30 04:03:44;;;;;;;;;;;12.50;99.90;;;;;;5033358;28;20459;-72
2023/05/30 04:06:10;;;;;;;;;;;12.40;99.90;;;;;;5032231;28;19925;-72
2023/05/30 04:08:39;;;;;;;;;;;12.50;99.90;;;;;;5031864;28;20292;-72
2023/05/30 04:11:05;;;;;;;;;;;12.50;99.90;;;;;;5028154;28;19936;-72
2023/05/30 04:13:31;;;;;;;;;;;12.50;99.90;;;;;;5014563;28;19925;-72
2023/05/30 04:15:57;;;;;;;;;;;12.50;99.90;;;;;;5031404;28;19948;-72
2023/05/30 04:18:23;;;;;;;;;;;12.50;99.90;;;;;;5030737;28;20312;-72
2023/05/30 04:20:48;;;;;;;;;;;12.40;99.90;;;;;;5031196;28;19925;-72
2023/05/30 04:23:14;;;;;;;;;;;12.50;99.90;;;;;;5031956;28;19928;-72
2023/05/30 04:25:40;;;;;;;;;;;12.50;99.90;;;;;;5031324;28;19925;-72
2023/05/30 04:28:06;;;;;;;;;;;12.40;99.90;;;;;;5018011;28;19933;-72
2023/05/30 04:30:33;;;;;;;;;;;12.40;99.90;;;;;;5031031;28;19932;-72
2023/05/30 04:32:59;;;;;;;;;;;12.50;99.90;;;;;;5013532;28;19925;-72
2023/05/30 04:35:25;;;;;;;;;;;12.40;99.90;;;;;;5030182;28;19983;-72
2023/05/30 04:37:53;;;;;;;;;;;12.40;99.90;;;;;;5020450;28;20614;-72
2023/05/30 04:40:19;;;;;;;;;;;12.50;99.90;;;;;;5014662;28;19999;-72
2023/05/30 04:42:51;;;;;;;;;;;12.50;99.90;;;;;;5031667;28;20395;-72
2023/05/30 04:45:18;;;;;;;;;;;12.50;99.90;;;;;;5029815;28;20021;-72
2023/05/30 04:47:47;;;;;;;;;;;12.50;99.90;;;;;;5029129;28;20422;-71
2023/05/30 04:50:14;;;;;;;;;;;12.50;99.90;;;;;;5013297;28;19929;-72
2023/05/30 04:52:42;;;;;;;;;;;12.50;99.90;;;;;;5014267;28;19932;-72
2023/05/30 04:55:08;;;;;;;;;;;12.50;99.90;;;;;;5031739;28;19926;-72
2023/05/30 04:57:34;;;;;;;;;;;12.50;99.90;;;;;;5013343;28;20019;-72
2023/05/30 05:00:00;;;;;;;;;;;12.50;99.90;;;;;;5014478;28;20017;-72
2023/05/30 05:02:28;;;;;;;;;;;12.50;99.90;;;;;;5031692;28;19947;-72
2023/05/30 05:04:53;;;;;;;;;;;12.50;99.90;;;;;;5014260;28;19926;-72
2023/05/30 05:07:19;;;;;;;;;;;12.50;99.90;;;;;;5013067;28;19948;-72
2023/05/30 05:09:45;;;;;;;;;;;12.50;99.90;;;;;;5012796;28;20465;-72
2023/05/30 05:12:11;;;;;;;;;;;12.50;99.90;;;;;;5017498;28;19932;-72
2023/05/30 05:14:37;;;;;;;;;;;12.40;99.90;;;;;;5000604;28;20020;-72
2023/05/30 05:17:02;;;;;;;;;;;12.50;99.90;;;;;;5016522;28;20000;-69
2023/05/30 05:19:28;;;;;;;;;;;12.50;99.90;;;;;;5012907;28;19932;-68
2023/05/30 05:21:53;;;;;;;;;;;12.50;99.90;;;;;;5030051;28;19932;-70
2023/05/30 05:24:19;;;;;;;;;;;12.50;99.90;;;;;;5030830;28;19925;-70
2023/05/30 05:26:44;;;;;;;;;;;12.50;99.90;;;;;;4989964;28;20296;-71
2023/05/30 05:29:10;;;;;;;;;;;12.50;99.90;;;;;;5008972;28;20403;-72
2023/05/30 05:31:36;;;;;;;;;;;12.50;99.90;;;;;;5012351;28;19930;-72
2023/05/30 05:34:01;;;;;;;;;;;12.40;99.90;;;;;;5014432;28;19925;-71
2023/05/30 05:36:27;;;;;;;;;;;12.50;99.90;;;;;;5029781;28;19933;-71
2023/05/30 05:38:52;;;;;;;;;;;12.50;99.90;;;;;;5012650;28;19925;-72
2023/05/30 05:41:18;;;;;;;;;;;12.50;99.90;;;;;;5014066;28;19935;-72
2023/05/30 05:43:43;;;;;;;;;;;12.50;99.90;;;;;;5021493;28;20315;-72
2023/05/30 05:46:10;;;;;;;;;;;12.50;99.90;;;;;;5014888;28;20308;-72
2023/05/30 05:48:36;;;;;;;;;;;12.50;99.90;;;;;;4996193;28;20015;-72
2023/05/30 05:51:02;;;;;;;;;;;12.50;99.90;;;;;;5030006;28;20008;-72
2023/05/30 05:53:28;;;;;;;;;;;12.50;99.90;;;;;;5014458;28;19925;-72
2023/05/30 05:55:54;;;;;;;;;;;12.50;99.90;;;;;;5029455;28;19925;-72
2023/05/30 05:58:20;;;;;;;;;;;12.50;99.90;;;;;;5013587;28;19925;-72
2023/05/30 06:00:45;;;;;;;;;;;12.50;99.90;;;;;;5004310;28;19935;-72
2023/05/30 06:03:11;;;;;;;;;;;12.50;99.90;;;;;;5012772;28;20365;-72
2023/05/30 06:05:36;;;;;;;;;;;12.40;99.90;;;;;;5012158;28;19931;-72
2023/05/30 06:08:02;;;;;;;;;;;12.50;99.90;;;;;;5029621;28;19929;-72
2023/05/30 06:10:28;;;;;;;;;;;12.50;99.90;;;;;;5009926;28;19999;-72
2023/05/30 06:12:53;;;;;;;;;;;12.50;99.90;;;;;;5012359;28;20391;-72
2023/05/30 06:15:19;;;;;;;;;;;12.60;99.90;;;;;;5029500;28;19925;-72
2023/05/30 06:17:45;;;;;;;;;;;12.60;99.90;;;;;;5011501;28;20387;-72
2023/05/30 06:20:11;;;;;;;;;;;12.60;99.90;;;;;;5013417;28;19968;-72
2023/05/30 06:22:37;;;;;;;;;;;12.60;99.90;;;;;;5012437;28;19925;-72
2023/05/30 06:25:03;;;;;;;;;;;12.60;99.90;;;;;;5011274;28;19925;-72
2023/05/30 06:27:28;;;;;;;;;;;12.70;99.90;;;;;;5028733;28;19929;-72
2023/05/30 06:29:54;;;;;;;;;;;12.70;99.90;;;;;;5029274;28;19925;-72
2023/05/30 06:32:19;;;;;;;;;;;12.70;99.90;;;;;;5018939;28;19948;-72
2023/05/30 06:34:48;;;;;;;;;;;12.70;99.90;;;;;;5012344;28;20289;-72
2023/05/30 06:37:14;;;;;;;;;;;12.70;99.90;;;;;;5011535;28;19925;-72
2023/05/30 06:39:39;;;;;;;;;;;12.80;99.90;;;;;;5011186;28;19929;-72
2023/05/30 06:42:06;;;;;;;;;;;12.80;99.90;;;;;;5012132;28;20311;-72
2023/05/30 06:44:31;;;;;;;;;;;12.80;99.90;;;;;;5012469;28;20539;-72
2023/05/30 06:46:57;;;;;;;;;;;12.80;99.90;;;;;;5012915;28;19929;-72
2023/05/30 06:49:22;;;;;;;;;;;12.80;99.90;;;;;;5012415;28;19929;-72
2023/05/30 06:51:48;;;;;;;;;;;12.80;99.90;;;;;;5009775;28;20347;-72
2023/05/30 06:54:13;;;;;;;;;;;12.80;99.90;;;;;;5014800;28;19925;-72
2023/05/30 06:56:39;;;;;;;;;;;12.90;99.90;;;;;;5013212;28;19929;-72
2023/05/30 06:59:05;;;;;;;;;;;12.90;99.90;;;;;;5030494;28;19929;-72
2023/05/30 07:01:30;;;;;;;;;;;12.90;99.90;;;;;;5039816;28;19976;-72
2023/05/30 07:03:56;;;;;;;;;;;12.90;99.90;;;;;;5037264;28;19932;-72
2023/05/30 07:06:21;;;;;;;;;;;12.90;99.90;;;;;;5028643;28;20528;-72
2023/05/30 07:08:47;;;;;;;;;;;12.80;99.90;;;;;;5012710;28;19929;-72
2023/05/30 07:11:12;;;;;;;;;;;12.80;99.90;;;;;;5013062;28;19925;-72
2023/05/30 07:13:38;;;;;;;;;;;12.80;99.90;;;;;;4996871;28;19929;-72
2023/05/30 07:16:03;;;;;;;;;;;12.80;99.90;;;;;;5021154;28;19926;-72
2023/05/30 07:18:29;;;;;;;;;;;12.80;99.90;;;;;;5039923;28;19929;-72
2023/05/30 07:20:54;;;;;;;;;;;12.80;99.90;;;;;;5012751;28;19926;-73
2023/05/30 07:23:20;;;;;;;;;;;12.90;99.90;;;;;;5015529;28;19932;-72
2023/05/30 07:25:45;;;;;;;;;;;13.00;99.90;;;;;;5031589;28;19986;-72
2023/05/30 07:28:11;;;;;;;;;;;13.10;99.90;;;;;;5012750;28;19937;-72
2023/05/30 07:30:36;;;;;;;;;;;13.10;99.90;;;;;;4998207;28;20446;-72
2023/05/30 07:33:02;;;;;;;;;;;13.20;99.90;;;;;;5014293;28;19925;-72
2023/05/30 07:35:28;;;;;;;;;;;13.40;99.90;;;;;;5031970;28;19925;-72
2023/05/30 07:37:53;;;;;;;;;;;13.50;99.90;;;;;;5014993;28;19935;-72
2023/05/30 07:40:19;;;;;;;;;;;13.70;99.90;;;;;;5032424;28;20503;-72
2023/05/30 07:42:47;;;;;;;;;;;13.90;99.90;;;;;;5001926;28;19925;-73
2023/05/30 07:45:13;;;;;;;;;;;14.10;99.90;;;;;;5011730;28;19975;-73
2023/05/30 07:47:38;;;;;;;;;;;14.30;99.90;;;;;;5030012;28;20399;-72
2023/05/30 07:50:05;;;;;;;;;;;14.40;99.90;;;;;;5032312;28;19979;-72
2023/05/30 07:52:30;;;;;;;;;;;14.60;99.90;;;;;;5031875;28;19925;-72
2023/05/30 07:54:56;;;;;;;;;;;14.70;99.90;;;;;;5032540;28;20306;-72
2023/05/30 07:57:21;;;;;;;;;;;14.60;99.90;;;;;;5032751;28;19986;-72
2023/05/30 07:59:48;;;;;;;;;;;14.50;99.90;;;;;;5032047;28;19932;-73
2023/05/30 08:02:14;;;;;;;;;;;14.50;99.90;;;;;;5019070;28;19971;-72
2023/05/30 08:04:39;;;;;;;;;;;14.40;99.90;;;;;;5031234;28;19972;-72
2023/05/30 08:07:05;;;;;;;;;;;14.20;99.90;;;;;;5031834;28;20015;-72
2023/05/30 08:09:31;;;;;;;;;;;14.20;99.90;;;;;;5014440;28;19925;-72
2023/05/30 08:11:57;;;;;;;;;;;14.10;99.90;;;;;;5013964;28;19978;-72
2023/05/30 08:14:23;;;;;;;;;;;14.00;99.90;;;;;;5014258;28;19925;-72
2023/05/30 08:16:48;;;;;;;;;;;14.00;99.90;;;;;;5015196;28;19932;-73
2023/05/30 08:19:14;;;;;;;;;;;14.00;99.90;;;;;;5013959;28;19925;-73
2023/05/30 08:21:42;;;;;;;;;;;14.00;99.90;;;;;;5013649;28;19933;-72
2023/05/30 08:24:07;;;;;;;;;;;14.00;99.90;;;;;;5014399;28;19957;-72
2023/05/30 08:26:34;;;;;;;;;;;14.00;99.90;;;;;;4997306;28;19964;-72
2023/05/30 08:28:59;;;;;;;;;;;13.90;99.90;;;;;;5014273;28;19925;-73
2023/05/30 08:31:25;;;;;;;;;;;13.90;99.90;;;;;;4997437;28;19929;-72
2023/05/30 08:33:51;;;;;;;;;;;13.80;99.90;;;;;;5020020;28;19933;-72
2023/05/30 08:36:16;;;;;;;;;;;13.80;99.90;;;;;;5028340;28;21077;-72
2023/05/30 08:38:42;;;;;;;;;;;13.70;99.90;;;;;;5032097;28;19932;-72
2023/05/30 08:41:07;;;;;;;;;;;13.60;99.90;;;;;;5013170;28;19925;-72
2023/05/30 08:43:33;;;;;;;;;;;13.60;99.90;;;;;;4997360;28;19932;-73
2023/05/30 08:45:59;;;;;;;;;;;13.60;99.90;;;;;;5013172;28;20376;-72
2023/05/30 08:48:27;;;;;;;;;;;13.60;99.90;;;;;;5013730;28;19948;-73
2023/05/30 08:50:53;;;;;;;;;;;13.70;99.90;;;;;;5013425;28;19933;-72
2023/05/30 08:53:38;;;;;;;;;;;13.90;99.90;;;;;;5030151;28;19929;-73
2023/05/30 08:56:10;;;;;;;;;;;14.10;99.90;;;;;;5012319;28;19929;-72
2023/05/30 08:58:43;;;;;;;;;;;14.20;99.90;;;;;;5019483;28;19937;-73
2023/05/30 09:01:10;;;;;;;;;;;14.20;99.90;;;;;;5031383;28;19932;-72
2023/05/30 09:03:38;;;;;;;;;;;14.10;99.90;;;;;;5031681;28;19928;-73
2023/05/30 09:06:07;;;;;;;;;;;14.10;99.90;;;;;;5031225;28;19925;-72
2023/05/30 09:08:33;;;;;;;;;;;14.10;99.90;;;;;;5032325;28;19925;-72
2023/05/30 09:10:59;;;;;;;;;;;14.10;99.90;;;;;;5031779;28;19925;-72
2023/05/30 09:13:24;;;;;;;;;;;14.10;99.90;;;;;;5030775;28;20383;-73
2023/05/30 09:15:50;;;;;;;;;;;14.20;99.90;;;;;;5013582;28;20004;-72
2023/05/30 09:18:16;;;;;;;;;;;14.20;99.90;;;;;;5031717;28;20320;-73
2023/05/30 09:20:42;;;;;;;;;;;14.20;99.90;;;;;;5024414;28;19929;-73
2023/05/30 09:23:07;;;;;;;;;;;14.20;99.90;;;;;;5027941;28;19937;-72
2023/05/30 09:25:43;;;;;;;;;;;14.30;99.90;;;;;;5023349;28;20026;-72
2023/05/30 09:28:09;;;;;;;;;;;14.30;99.90;;;;;;5029028;28;19983;-72
2023/05/30 09:30:34;;;;;;;;;;;14.40;99.90;;;;;;5021637;28;20019;-72
2023/05/30 09:33:01;;;;;;;;;;;14.40;99.90;;;;;;5030529;28;20004;-72
2023/05/30 09:35:27;;;;;;;;;;;14.40;99.90;;;;;;5030202;28;19951;-72
2023/05/30 09:37:52;;;;;;;;;;;14.40;99.90;;;;;;5020016;28;19928;-75
2023/05/30 09:40:18;;;;;;;;;;;14.50;99.90;;;;;;5021472;28;20016;-72
2023/05/30 09:42:45;;;;;;;;;;;14.50;99.90;;;;;;5028485;28;19964;-72
2023/05/30 09:45:11;;;;;;;;;;;14.60;99.90;;;;;;5010036;28;20048;-72
2023/05/30 09:47:41;;;;;;;;;;;14.70;99.90;;;;;;5027291;28;19925;-72
2023/05/30 09:50:08;;;;;;;;;;;14.70;99.90;;;;;;5029639;28;20011;-73
2023/05/30 09:52:33;;;;;;;;;;;14.90;99.90;;;;;;5012703;28;20116;-73
2023/05/30 09:55:00;;;;;;;;;;;15.00;99.90;;;;;;5030033;28;20029;-73
2023/05/30 09:57:27;;;;;;;;;;;15.10;99.90;;;;;;5012342;28;19949;-73
2023/05/30 09:59:53;;;;;;;;;;;15.10;99.90;;;;;;5009185;28;20320;-73
2023/05/30 10:02:22;;;;;;;;;;;15.00;99.90;;;;;;5012393;28;19929;-73
2023/05/30 10:04:50;;;;;;;;;;;15.10;99.90;;;;;;5012593;28;20306;-73
2023/05/30 10:07:16;;;;;;;;;;;15.40;99.90;;;;;;5031097;28;20513;-73
2023/05/30 10:09:42;;;;;;;;;;;15.60;99.90;;;;;;5029907;28;19925;-73
2023/05/30 10:12:08;;;;;;;;;;;15.60;99.90;;;;;;5013149;28;20265;-73
2023/05/30 10:14:34;;;;;;;;;;;15.50;99.90;;;;;;5014073;28;20457;-73
2023/05/30 10:17:03;;;;;;;;;;;15.40;99.90;;;;;;5007261;28;19947;-73
2023/05/30 10:19:37;;;;;;;;;;;15.40;99.90;;;;;;5002222;28;19932;-73
2023/05/30 10:22:06;;;;;;;;;;;15.40;99.90;;;;;;5030026;28;20350;-73
2023/05/30 10:24:31;;;;;;;;;;;15.50;99.90;;;;;;5011980;28;19932;-73
2023/05/30 10:26:59;;;;;;;;;;;15.50;99.90;;;;;;5012681;28;19925;-73
2023/05/30 10:29:28;;;;;;;;;;;15.60;99.90;;;;;;5031420;28;19958;-73
2023/05/30 10:31:54;;;;;;;;;;;15.90;99.90;;;;;;5023806;28;19931;-73
2023/05/30 10:34:24;;;;;;;;;;;16.20;99.90;;;;;;5012909;28;19925;-73
2023/05/30 10:36:51;;;;;;;;;;;16.70;99.90;;;;;;5009433;28;19926;-73
2023/05/30 10:39:30;;;;;;;;;;;17.10;99.90;;;;;;5012028;28;19932;-73
2023/05/30 10:42:21;;;;;;;;;;;17.10;99.90;;;;;;5012129;28;19925;-73
2023/05/30 10:44:55;;;;;;;;;;;17.00;99.90;;;;;;4998435;28;19925;-73
2023/05/30 10:47:37;;;;;;;;;;;16.70;99.90;;;;;;5012365;28;19925;-73
2023/05/30 10:50:05;;;;;;;;;;;16.60;99.90;;;;;;5008533;28;19925;-72
2023/05/30 10:52:31;;;;;;;;;;;16.40;99.90;;;;;;4995371;28;19925;-72
2023/05/30 10:54:57;;;;;;;;;;;16.40;99.90;;;;;;5029384;28;20391;-72
2023/05/30 10:57:23;;;;;;;;;;;16.20;99.90;;;;;;5031825;28;19935;-72
2023/05/30 10:59:49;;;;;;;;;;;16.10;99.90;;;;;;5022979;28;19926;-72
2023/05/30 11:02:20;;;;;;;;;;;16.10;99.90;;;;;;4999627;28;19925;-72
2023/05/30 11:04:50;;;;;;;;;;;16.10;99.90;;;;;;5033904;28;19964;-73
2023/05/30 11:07:16;;;;;;;;;;;16.10;99.90;;;;;;5000163;28;19935;-72
2023/05/30 11:09:42;;;;;;;;;;;16.20;99.90;;;;;;5022619;28;19925;-73
2023/05/30 11:12:08;;;;;;;;;;;16.50;99.90;;;;;;5032090;28;20016;-73
2023/05/30 11:14:35;;;;;;;;;;;16.70;99.90;;;;;;4999339;28;19975;-73
2023/05/30 11:17:03;;;;;;;;;;;16.80;99.90;;;;;;5013894;28;19964;-75
2023/05/30 11:19:36;;;;;;;;;;;16.90;99.90;;;;;;5015365;28;19925;-72
2023/05/30 11:22:22;;;;;;;;;;;16.80;99.90;;;;;;5031646;28;20012;-72
2023/05/30 11:25:08;;;;;;;;;;;16.60;99.90;;;;;;5029846;28;19937;-72
2023/05/30 11:27:33;;;;;;;;;;;16.40;99.90;;;;;;5024971;28;19925;-75
2023/05/30 11:29:59;;;;;;;;;;;16.40;99.90;;;;;;5032022;28;20382;-72
2023/05/30 11:32:28;;;;;;;;;;;16.40;99.90;;;;;;5014891;28;19929;-72
2023/05/30 11:34:57;;;;;;;;;;;16.40;99.90;;;;;;5014250;28;19925;-72
2023/05/30 11:37:23;;;;;;;;;;;16.40;99.90;;;;;;5014076;28;20451;-72
2023/05/30 11:39:52;;;;;;;;;;;16.60;99.90;;;;;;5032265;28;20020;-72
2023/05/30 11:42:18;;;;;;;;;;;16.70;99.90;;;;;;5012040;28;19936;-72
2023/05/30 11:44:44;;;;;;;;;;;16.70;99.90;;;;;;5013863;28;19929;-72
2023/05/30 11:47:11;;;;;;;;;;;16.70;99.90;;;;;;5019614;28;19968;-72
2023/05/30 11:49:37;;;;;;;;;;;16.70;99.90;;;;;;4997225;28;19929;-72
2023/05/30 11:52:02;;;;;;;;;;;16.60;99.90;;;;;;5013404;28;20000;-72
2023/05/30 11:54:28;;;;;;;;;;;16.60;99.90;;;;;;5031490;28;20358;-72
2023/05/30 11:56:55;;;;;;;;;;;16.60;99.90;;;;;;5013490;28;19925;-72
2023/05/30 11:59:21;;;;;;;;;;;16.60;99.90;;;;;;5013187;28;19929;-72
2023/05/30 12:01:54;;;;;;;;;;;16.60;99.90;;;;;;5020179;28;20306;-72
2023/05/30 12:04:20;;;;;;;;;;;16.60;99.90;;;;;;5013420;28;20488;-72
2023/05/30 12:06:46;;;;;;;;;;;16.90;99.90;;;;;;4993628;28;19936;-72
2023/05/30 12:09:12;;;;;;;;;;;17.10;99.90;;;;;;5013696;28;19925;-72
2023/05/30 12:11:37;;;;;;;;;;;17.40;99.90;;;;;;5031584;28;19940;-72
2023/05/30 12:14:03;;;;;;;;;;;17.60;99.90;;;;;;5015776;28;19964;-72
2023/05/30 12:16:28;;;;;;;;;;;17.70;99.90;;;;;;5031124;28;19984;-72
2023/05/30 12:18:54;;;;;;;;;;;17.80;99.90;;;;;;5025481;28;19925;-72
2023/05/30 12:21:20;;;;;;;;;;;17.90;99.90;;;;;;5012951;28;19925;-72
2023/05/30 12:23:46;;;;;;;;;;;18.00;99.90;;;;;;5012566;28;19976;-72
2023/05/30 12:26:16;;;;;;;;;;;18.10;99.90;;;;;;5013285;28;20400;-73
2023/05/30 12:28:46;;;;;;;;;;;18.30;99.90;;;;;;5014091;28;19955;-72
2023/05/30 12:31:21;;;;;;;;;;;18.30;99.90;;;;;;5032227;28;19925;-72
2023/05/30 12:33:47;;;;;;;;;;;18.30;99.90;;;;;;5014533;28;20027;-72
2023/05/30 12:36:12;;;;;;;;;;;18.30;99.90;;;;;;5016081;28;20015;-72
2023/05/30 12:38:38;;;;;;;;;;;18.20;99.90;;;;;;5043270;28;19925;-72
2023/05/30 12:41:05;;;;;;;;;;;18.20;99.90;;;;;;5016409;28;19932;-72
2023/05/30 12:43:30;;;;;;;;;;;18.40;99.90;;;;;;4996698;28;20342;-72
2023/05/30 12:46:08;;;;;;;;;;;18.60;99.90;;;;;;5034251;28;19928;-72
2023/05/30 12:48:34;;;;;;;;;;;18.70;99.90;;;;;;5012589;28;19925;-72
2023/05/30 12:50:59;;;;;;;;;;;18.70;99.90;;;;;;5012019;28;19926;-72
2023/05/30 12:53:25;;;;;;;;;;;18.50;99.90;;;;;;5012899;28;19925;-72
2023/05/30 12:55:51;;;;;;;;;;;18.40;99.90;;;;;;5015449;28;19971;-72
2023/05/30 12:58:16;;;;;;;;;;;18.40;99.90;;;;;;5015703;28;19925;-72
2023/05/30 13:00:42;;;;;;;;;;;18.30;99.90;;;;;;5018903;28;19974;-73
2023/05/30 13:03:08;;;;;;;;;;;18.20;99.90;;;;;;5016386;28;19933;-73
2023/05/30 13:05:33;;;;;;;;;;;18.10;99.90;;;;;;4996708;28;19925;-73
2023/05/30 13:07:59;;;;;;;;;;;18.20;99.90;;;;;;5034978;28;20019;-73
2023/05/30 13:10:24;;;;;;;;;;;18.10;99.90;;;;;;5022255;28;20007;-73
2023/05/30 13:12:50;;;;;;;;;;;18.10;99.90;;;;;;5023765;28;20012;-73
2023/05/30 13:15:16;;;;;;;;;;;18.30;99.90;;;;;;5033347;28;19937;-73
2023/05/30 13:17:41;;;;;;;;;;;18.40;99.90;;;;;;5024082;28;19929;-73
2023/05/30 13:20:07;;;;;;;;;;;18.40;99.90;;;;;;5014792;28;20409;-74
2023/05/30 13:22:32;;;;;;;;;;;18.40;99.90;;;;;;5031285;28;19980;-73
2023/05/30 13:24:58;;;;;;;;;;;18.30;99.90;;;;;;5030941;28;19925;-73
2023/05/30 13:27:24;;;;;;;;;;;18.20;99.90;;;;;;5031758;28;19971;-73
2023/05/30 13:29:50;;;;;;;;;;;18.00;99.90;;;;;;5030875;28;19925;-73
2023/05/30 13:32:15;;;;;;;;;;;17.70;99.90;;;;;;5031120;28;19925;-73
2023/05/30 13:34:41;;;;;;;;;;;17.60;99.90;;;;;;5028143;28;19977;-74
2023/05/30 13:37:06;;;;;;;;;;;17.50;99.90;;;;;;5012564;28;19971;-73
2023/05/30 13:39:32;;;;;;;;;;;17.50;99.90;;;;;;5011986;28;19929;-73
2023/05/30 13:41:57;;;;;;;;;;;17.50;99.90;;;;;;5030964;28;19979;-73
2023/05/30 13:44:23;;;;;;;;;;;17.50;99.90;;;;;;5013412;28;20371;-73
2023/05/30 13:46:49;;;;;;;;;;;17.50;99.90;;;;;;5012911;28;20019;-73
2023/05/30 13:49:14;;;;;;;;;;;17.50;99.90;;;;;;5026705;28;19932;-73
2023/05/30 13:51:40;;;;;;;;;;;17.60;99.90;;;;;;5022334;28;20059;-73
2023/05/30 13:54:06;;;;;;;;;;;17.60;99.90;;;;;;5028742;28;19991;-73
2023/05/30 13:56:32;;;;;;;;;;;17.80;99.90;;;;;;5021339;28;19925;-74
2023/05/30 13:58:57;;;;;;;;;;;17.90;99.90;;;;;;5030392;28;19925;-73
2023/05/30 14:01:24;;;;;;;;;;;18.00;99.90;;;;;;5030146;28;19933;-73
2023/05/30 14:03:50;;;;;;;;;;;18.00;99.90;;;;;;5031149;28;19925;-73
2023/05/30 14:06:16;;;;;;;;;;;18.00;99.90;;;;;;5030462;28;19929;-73
2023/05/30 14:08:41;;;;;;;;;;;17.80;99.90;;;;;;5030087;28;20319;-73
2023/05/30 14:11:07;;;;;;;;;;;17.60;99.90;;;;;;5005570;28;20391;-73
2023/05/30 14:13:33;;;;;;;;;;;17.40;99.90;;;;;;5031512;28;20345;-73